sensor_id;sensor_type;location;lat;lon;timestamp;temperature;humidity
3942;DHT22;1985;48.592;8.850;2022-08-14T00:00:22;20.30;60.00
3942;DHT22;1985;48.592;8.850;2022-08-14T00:02:49;20.30;59.70
3942;DHT22;1985;48.592;8.850;2022-08-14T00:05:17;20.30;59.60
3942;DHT22;1985;48.592;8.850;2022-08-14T00:07:45;20.30;59.20
3942;DHT22;1985;48.592;8.850;2022-08-14T00:10:14;20.30;59.00
3942;DHT22;1985;48.592;8.850;2022-08-14T00:12:44;20.30;58.90
3942;DHT22;1985;48.592;8.850;2022-08-14T00:15:18;20.20;58.90
3942;DHT22;1985;48.592;8.850;2022-08-14T00:17:45;20.20;58.90
3942;DHT22;1985;48.592;8.850;2022-08-14T00:20:12;20.20;58.90
3942;DHT22;1985;48.592;8.850;2022-08-14T00:22:38;20.20;59.10
3942;DHT22;1985;48.592;8.850;2022-08-14T00:25:08;20.10;59.00
3942;DHT22;1985;48.592;8.850;2022-08-14T00:27:34;20.20;59.20
3942;DHT22;1985;48.592;8.850;2022-08-14T00:30:00;20.10;59.10
3942;DHT22;1985;48.592;8.850;2022-08-14T00:32:25;20.10;59.30
3942;DHT22;1985;48.592;8.850;2022-08-14T00:34:51;20.10;59.20
3942;DHT22;1985;48.592;8.850;2022-08-14T00:37:17;20.10;59.30
3942;DHT22;1985;48.592;8.850;2022-08-14T00:39:42;20.00;60.40
3942;DHT22;1985;48.592;8.850;2022-08-14T00:42:08;19.90;60.50
3942;DHT22;1985;48.592;8.850;2022-08-14T00:44:34;19.90;60.20
3942;DHT22;1985;48.592;8.850;2022-08-14T00:47:01;19.80;60.80
3942;DHT22;1985;48.592;8.850;2022-08-14T00:49:27;19.80;60.90
3942;DHT22;1985;48.592;8.850;2022-08-14T00:51:53;19.80;60.80
3942;DHT22;1985;48.592;8.850;2022-08-14T00:54:19;19.80;60.70
3942;DHT22;1985;48.592;8.850;2022-08-14T00:56:45;19.80;60.50
3942;DHT22;1985;48.592;8.850;2022-08-14T00:59:10;19.80;60.50
3942;DHT22;1985;48.592;8.850;2022-08-14T01:01:37;19.80;60.60
3942;DHT22;1985;48.592;8.850;2022-08-14T01:04:04;19.80;61.00
3942;DHT22;1985;48.592;8.850;2022-08-14T01:06:30;19.80;60.70
3942;DHT22;1985;48.592;8.850;2022-08-14T01:08:59;19.70;61.50
3942;DHT22;1985;48.592;8.850;2022-08-14T01:11:25;19.60;61.60
3942;DHT22;1985;48.592;8.850;2022-08-14T01:13:51;19.50;60.80
3942;DHT22;1985;48.592;8.850;2022-08-14T01:16:17;19.50;60.40
3942;DHT22;1985;48.592;8.850;2022-08-14T01:18:45;19.30;60.90
3942;DHT22;1985;48.592;8.850;2022-08-14T01:21:35;18.90;62.90
3942;DHT22;1985;48.592;8.850;2022-08-14T01:24:02;18.70;64.20
3942;DHT22;1985;48.592;8.850;2022-08-14T01:26:29;18.60;64.60
3942;DHT22;1985;48.592;8.850;2022-08-14T01:28:56;18.40;65.20
3942;DHT22;1985;48.592;8.850;2022-08-14T01:31:28;18.30;65.40
3942;DHT22;1985;48.592;8.850;2022-08-14T01:33:56;18.40;65.70
3942;DHT22;1985;48.592;8.850;2022-08-14T01:36:24;18.40;65.60
3942;DHT22;1985;48.592;8.850;2022-08-14T01:38:52;18.50;65.30
3942;DHT22;1985;48.592;8.850;2022-08-14T01:41:23;18.50;64.70
3942;DHT22;1985;48.592;8.850;2022-08-14T01:43:50;18.40;65.90
3942;DHT22;1985;48.592;8.850;2022-08-14T01:46:21;18.40;65.90
3942;DHT22;1985;48.592;8.850;2022-08-14T01:48:48;18.30;65.60
3942;DHT22;1985;48.592;8.850;2022-08-14T01:51:17;18.40;65.90
3942;DHT22;1985;48.592;8.850;2022-08-14T01:53:46;18.50;65.80
3942;DHT22;1985;48.592;8.850;2022-08-14T01:56:15;18.40;65.50
3942;DHT22;1985;48.592;8.850;2022-08-14T01:58:44;18.40;65.90
3942;DHT22;1985;48.592;8.850;2022-08-14T02:01:14;18.50;65.40
3942;DHT22;1985;48.592;8.850;2022-08-14T02:03:40;18.50;65.00
3942;DHT22;1985;48.592;8.850;2022-08-14T02:06:06;18.60;64.50
3942;DHT22;1985;48.592;8.850;2022-08-14T02:08:32;18.70;64.20
3942;DHT22;1985;48.592;8.850;2022-08-14T02:11:04;18.60;64.30
3942;DHT22;1985;48.592;8.850;2022-08-14T02:14:06;18.60;64.70
3942;DHT22;1985;48.592;8.850;2022-08-14T02:16:34;18.50;64.90
3942;DHT22;1985;48.592;8.850;2022-08-14T02:19:06;18.40;65.00
3942;DHT22;1985;48.592;8.850;2022-08-14T02:21:33;18.40;65.20
3942;DHT22;1985;48.592;8.850;2022-08-14T02:24:01;18.40;65.50
3942;DHT22;1985;48.592;8.850;2022-08-14T02:26:33;18.40;65.70
3942;DHT22;1985;48.592;8.850;2022-08-14T02:29:06;18.40;65.30
3942;DHT22;1985;48.592;8.850;2022-08-14T02:31:35;18.50;64.70
3942;DHT22;1985;48.592;8.850;2022-08-14T02:34:19;18.50;64.00
3942;DHT22;1985;48.592;8.850;2022-08-14T02:36:48;18.50;64.00
3942;DHT22;1985;48.592;8.850;2022-08-14T02:39:16;18.40;64.40
3942;DHT22;1985;48.592;8.850;2022-08-14T02:41:42;18.40;64.20
3942;DHT22;1985;48.592;8.850;2022-08-14T02:44:09;18.40;64.10
3942;DHT22;1985;48.592;8.850;2022-08-14T02:46:37;18.40;64.20
3942;DHT22;1985;48.592;8.850;2022-08-14T02:49:03;18.40;64.50
3942;DHT22;1985;48.592;8.850;2022-08-14T02:51:31;18.30;65.10
3942;DHT22;1985;48.592;8.850;2022-08-14T02:53:57;18.20;64.90
3942;DHT22;1985;48.592;8.850;2022-08-14T02:56:24;18.10;64.90
3942;DHT22;1985;48.592;8.850;2022-08-14T02:58:53;18.10;65.10
3942;DHT22;1985;48.592;8.850;2022-08-14T03:01:20;18.00;65.90
3942;DHT22;1985;48.592;8.850;2022-08-14T03:03:47;18.00;65.90
3942;DHT22;1985;48.592;8.850;2022-08-14T03:06:15;18.00;66.40
3942;DHT22;1985;48.592;8.850;2022-08-14T03:08:41;18.00;66.40
3942;DHT22;1985;48.592;8.850;2022-08-14T03:11:09;17.90;66.20
3942;DHT22;1985;48.592;8.850;2022-08-14T03:13:38;18.00;65.90
3942;DHT22;1985;48.592;8.850;2022-08-14T03:16:14;18.00;65.70
3942;DHT22;1985;48.592;8.850;2022-08-14T03:18:44;17.90;65.80
3942;DHT22;1985;48.592;8.850;2022-08-14T03:21:12;18.00;66.10
3942;DHT22;1985;48.592;8.850;2022-08-14T03:23:44;18.00;66.00
3942;DHT22;1985;48.592;8.850;2022-08-14T03:26:12;18.00;66.00
3942;DHT22;1985;48.592;8.850;2022-08-14T03:28:41;18.00;65.70
3942;DHT22;1985;48.592;8.850;2022-08-14T03:31:08;18.10;65.40
3942;DHT22;1985;48.592;8.850;2022-08-14T03:33:35;18.10;65.00
3942;DHT22;1985;48.592;8.850;2022-08-14T03:36:13;18.00;65.70
3942;DHT22;1985;48.592;8.850;2022-08-14T03:38:40;18.00;66.00
3942;DHT22;1985;48.592;8.850;2022-08-14T03:41:14;17.90;66.40
3942;DHT22;1985;48.592;8.850;2022-08-14T03:43:49;18.00;66.80
3942;DHT22;1985;48.592;8.850;2022-08-14T03:46:16;17.90;66.40
3942;DHT22;1985;48.592;8.850;2022-08-14T03:48:43;17.80;66.30
3942;DHT22;1985;48.592;8.850;2022-08-14T03:51:10;17.80;66.70
3942;DHT22;1985;48.592;8.850;2022-08-14T03:53:39;17.70;66.90
3942;DHT22;1985;48.592;8.850;2022-08-14T03:56:07;17.60;67.00
3942;DHT22;1985;48.592;8.850;2022-08-14T03:58:37;17.70;66.80
3942;DHT22;1985;48.592;8.850;2022-08-14T04:01:02;17.60;66.80
3942;DHT22;1985;48.592;8.850;2022-08-14T04:03:28;17.60;66.90
3942;DHT22;1985;48.592;8.850;2022-08-14T04:05:54;17.60;67.10
3942;DHT22;1985;48.592;8.850;2022-08-14T04:08:20;17.60;67.10
3942;DHT22;1985;48.592;8.850;2022-08-14T04:10:46;17.60;66.80
3942;DHT22;1985;48.592;8.850;2022-08-14T04:13:13;17.70;66.40
3942;DHT22;1985;48.592;8.850;2022-08-14T04:15:45;17.70;66.50
3942;DHT22;1985;48.592;8.850;2022-08-14T04:18:11;17.60;66.80
3942;DHT22;1985;48.592;8.850;2022-08-14T04:20:39;17.60;66.50
3942;DHT22;1985;48.592;8.850;2022-08-14T04:23:06;17.70;65.60
3942;DHT22;1985;48.592;8.850;2022-08-14T04:25:32;17.60;65.50
3942;DHT22;1985;48.592;8.850;2022-08-14T04:28:03;17.30;66.30
3942;DHT22;1985;48.592;8.850;2022-08-14T04:30:34;17.10;67.50
3942;DHT22;1985;48.592;8.850;2022-08-14T04:33:06;16.80;69.00
3942;DHT22;1985;48.592;8.850;2022-08-14T04:35:34;16.80;69.20
3942;DHT22;1985;48.592;8.850;2022-08-14T04:38:08;16.80;68.80
3942;DHT22;1985;48.592;8.850;2022-08-14T04:40:53;16.60;69.10
3942;DHT22;1985;48.592;8.850;2022-08-14T04:43:37;16.50;70.20
3942;DHT22;1985;48.592;8.850;2022-08-14T04:46:16;16.50;70.10
3942;DHT22;1985;48.592;8.850;2022-08-14T04:48:42;16.50;70.30
3942;DHT22;1985;48.592;8.850;2022-08-14T04:51:12;16.60;71.20
3942;DHT22;1985;48.592;8.850;2022-08-14T04:53:41;16.70;70.30
3942;DHT22;1985;48.592;8.850;2022-08-14T04:56:12;16.80;70.30
3942;DHT22;1985;48.592;8.850;2022-08-14T04:58:38;16.90;70.40
3942;DHT22;1985;48.592;8.850;2022-08-14T05:01:06;16.90;70.30
3942;DHT22;1985;48.592;8.850;2022-08-14T05:03:33;17.00;70.50
3942;DHT22;1985;48.592;8.850;2022-08-14T05:06:02;17.20;70.10
3942;DHT22;1985;48.592;8.850;2022-08-14T05:08:29;17.30;69.50
3942;DHT22;1985;48.592;8.850;2022-08-14T05:10:58;17.50;69.30
3942;DHT22;1985;48.592;8.850;2022-08-14T05:13:26;17.60;68.70
3942;DHT22;1985;48.592;8.850;2022-08-14T05:15:54;17.70;68.70
3942;DHT22;1985;48.592;8.850;2022-08-14T05:18:25;17.70;69.00
3942;DHT22;1985;48.592;8.850;2022-08-14T05:20:53;17.80;68.90
3942;DHT22;1985;48.592;8.850;2022-08-14T05:23:24;17.90;67.70
3942;DHT22;1985;48.592;8.850;2022-08-14T05:25:52;18.00;66.20
3942;DHT22;1985;48.592;8.850;2022-08-14T05:28:26;18.00;66.60
3942;DHT22;1985;48.592;8.850;2022-08-14T05:30:54;17.80;67.20
3942;DHT22;1985;48.592;8.850;2022-08-14T05:33:21;17.60;67.90
3942;DHT22;1985;48.592;8.850;2022-08-14T05:35:50;17.60;68.50
3942;DHT22;1985;48.592;8.850;2022-08-14T05:38:17;17.70;68.40
3942;DHT22;1985;48.592;8.850;2022-08-14T05:40:44;17.70;68.40
3942;DHT22;1985;48.592;8.850;2022-08-14T05:43:10;17.80;68.20
3942;DHT22;1985;48.592;8.850;2022-08-14T05:45:36;17.80;67.80
3942;DHT22;1985;48.592;8.850;2022-08-14T05:48:03;17.90;68.20
3942;DHT22;1985;48.592;8.850;2022-08-14T05:50:29;17.80;68.40
3942;DHT22;1985;48.592;8.850;2022-08-14T05:52:55;17.80;68.60
3942;DHT22;1985;48.592;8.850;2022-08-14T05:55:21;17.80;69.00
3942;DHT22;1985;48.592;8.850;2022-08-14T05:57:48;17.90;69.20
3942;DHT22;1985;48.592;8.850;2022-08-14T06:00:16;17.90;68.40
3942;DHT22;1985;48.592;8.850;2022-08-14T06:02:42;18.00;69.30
3942;DHT22;1985;48.592;8.850;2022-08-14T06:05:07;18.10;67.70
3942;DHT22;1985;48.592;8.850;2022-08-14T06:07:37;18.20;67.80
3942;DHT22;1985;48.592;8.850;2022-08-14T06:10:07;18.30;68.40
3942;DHT22;1985;48.592;8.850;2022-08-14T06:12:33;18.40;68.20
3942;DHT22;1985;48.592;8.850;2022-08-14T06:14:59;18.60;67.90
3942;DHT22;1985;48.592;8.850;2022-08-14T06:17:25;18.70;67.00
3942;DHT22;1985;48.592;8.850;2022-08-14T06:19:51;18.80;67.30
3942;DHT22;1985;48.592;8.850;2022-08-14T06:22:17;19.00;68.00
3942;DHT22;1985;48.592;8.850;2022-08-14T06:24:43;19.20;66.70
3942;DHT22;1985;48.592;8.850;2022-08-14T06:27:08;19.20;65.60
3942;DHT22;1985;48.592;8.850;2022-08-14T06:29:36;19.40;65.00
3942;DHT22;1985;48.592;8.850;2022-08-14T06:32:03;19.50;64.70
3942;DHT22;1985;48.592;8.850;2022-08-14T06:34:29;19.60;66.00
3942;DHT22;1985;48.592;8.850;2022-08-14T06:36:55;19.70;66.70
3942;DHT22;1985;48.592;8.850;2022-08-14T06:39:23;19.60;67.20
3942;DHT22;1985;48.592;8.850;2022-08-14T06:41:49;19.60;66.90
3942;DHT22;1985;48.592;8.850;2022-08-14T06:44:15;19.50;66.80
3942;DHT22;1985;48.592;8.850;2022-08-14T06:46:40;19.50;67.20
3942;DHT22;1985;48.592;8.850;2022-08-14T06:49:06;19.60;67.40
3942;DHT22;1985;48.592;8.850;2022-08-14T06:51:32;19.70;67.10
3942;DHT22;1985;48.592;8.850;2022-08-14T06:53:57;19.90;66.70
3942;DHT22;1985;48.592;8.850;2022-08-14T06:56:23;20.00;66.00
3942;DHT22;1985;48.592;8.850;2022-08-14T06:58:49;20.20;66.10
3942;DHT22;1985;48.592;8.850;2022-08-14T07:01:14;20.40;66.10
3942;DHT22;1985;48.592;8.850;2022-08-14T07:03:59;20.50;66.00
3942;DHT22;1985;48.592;8.850;2022-08-14T07:06:43;20.70;65.80
3942;DHT22;1985;48.592;8.850;2022-08-14T07:09:09;20.90;64.30
3942;DHT22;1985;48.592;8.850;2022-08-14T07:11:36;21.10;64.30
3942;DHT22;1985;48.592;8.850;2022-08-14T07:14:02;21.20;64.30
3942;DHT22;1985;48.592;8.850;2022-08-14T07:16:28;21.30;63.10
3942;DHT22;1985;48.592;8.850;2022-08-14T07:18:53;21.40;62.80
3942;DHT22;1985;48.592;8.850;2022-08-14T07:21:19;21.60;61.90
3942;DHT22;1985;48.592;8.850;2022-08-14T07:23:44;21.50;61.10
3942;DHT22;1985;48.592;8.850;2022-08-14T07:26:10;21.60;61.40
3942;DHT22;1985;48.592;8.850;2022-08-14T07:28:39;21.70;62.20
3942;DHT22;1985;48.592;8.850;2022-08-14T07:31:07;21.80;62.40
3942;DHT22;1985;48.592;8.850;2022-08-14T07:33:39;21.90;62.50
3942;DHT22;1985;48.592;8.850;2022-08-14T07:36:07;22.10;60.90
3942;DHT22;1985;48.592;8.850;2022-08-14T07:38:34;22.20;59.40
3942;DHT22;1985;48.592;8.850;2022-08-14T07:41:00;22.30;59.70
3942;DHT22;1985;48.592;8.850;2022-08-14T07:43:26;22.40;58.50
3942;DHT22;1985;48.592;8.850;2022-08-14T07:45:52;22.60;57.50
3942;DHT22;1985;48.592;8.850;2022-08-14T07:48:18;22.70;58.10
3942;DHT22;1985;48.592;8.850;2022-08-14T07:50:45;22.80;57.70
3942;DHT22;1985;48.592;8.850;2022-08-14T07:53:12;22.90;57.30
3942;DHT22;1985;48.592;8.850;2022-08-14T07:55:40;23.00;57.90
3942;DHT22;1985;48.592;8.850;2022-08-14T07:58:06;23.10;58.00
3942;DHT22;1985;48.592;8.850;2022-08-14T08:00:32;23.10;57.60
3942;DHT22;1985;48.592;8.850;2022-08-14T08:02:58;23.10;57.30
3942;DHT22;1985;48.592;8.850;2022-08-14T08:05:24;23.20;57.10
3942;DHT22;1985;48.592;8.850;2022-08-14T08:07:51;23.40;57.30
3942;DHT22;1985;48.592;8.850;2022-08-14T08:10:24;23.50;56.40
3942;DHT22;1985;48.592;8.850;2022-08-14T08:13:01;23.50;55.30
3942;DHT22;1985;48.592;8.850;2022-08-14T08:15:30;23.50;56.40
3942;DHT22;1985;48.592;8.850;2022-08-14T08:18:01;23.60;55.80
3942;DHT22;1985;48.592;8.850;2022-08-14T08:20:30;23.80;57.10
3942;DHT22;1985;48.592;8.850;2022-08-14T08:22:56;23.90;54.80
3942;DHT22;1985;48.592;8.850;2022-08-14T08:25:29;24.10;54.70
3942;DHT22;1985;48.592;8.850;2022-08-14T08:28:06;24.40;53.10
3942;DHT22;1985;48.592;8.850;2022-08-14T08:30:34;24.40;53.50
3942;DHT22;1985;48.592;8.850;2022-08-14T08:33:02;24.50;53.30
3942;DHT22;1985;48.592;8.850;2022-08-14T08:35:34;24.50;52.70
3942;DHT22;1985;48.592;8.850;2022-08-14T08:38:14;24.60;53.60
3942;DHT22;1985;48.592;8.850;2022-08-14T08:40:47;24.70;54.20
3942;DHT22;1985;48.592;8.850;2022-08-14T08:46:11;24.90;53.70
3942;DHT22;1985;48.592;8.850;2022-08-14T08:48:49;25.00;53.60
3942;DHT22;1985;48.592;8.850;2022-08-14T08:51:34;25.10;52.80
3942;DHT22;1985;48.592;8.850;2022-08-14T08:54:13;25.30;53.30
3942;DHT22;1985;48.592;8.850;2022-08-14T08:56:46;25.40;51.30
3942;DHT22;1985;48.592;8.850;2022-08-14T09:01:41;25.70;51.10
3942;DHT22;1985;48.592;8.850;2022-08-14T09:04:11;25.70;50.10
3942;DHT22;1985;48.592;8.850;2022-08-14T09:06:48;25.70;50.00
3942;DHT22;1985;48.592;8.850;2022-08-14T09:09:19;25.80;51.30
3942;DHT22;1985;48.592;8.850;2022-08-14T09:11:45;26.00;50.50
3942;DHT22;1985;48.592;8.850;2022-08-14T09:14:11;26.10;49.10
3942;DHT22;1985;48.592;8.850;2022-08-14T09:16:38;26.20;49.00
3942;DHT22;1985;48.592;8.850;2022-08-14T09:19:04;26.20;49.30
3942;DHT22;1985;48.592;8.850;2022-08-14T09:21:32;26.30;49.60
3942;DHT22;1985;48.592;8.850;2022-08-14T09:23:59;26.40;48.90
3942;DHT22;1985;48.592;8.850;2022-08-14T09:26:25;26.60;48.00
3942;DHT22;1985;48.592;8.850;2022-08-14T09:28:51;26.50;47.70
3942;DHT22;1985;48.592;8.850;2022-08-14T09:31:18;26.60;47.50
3942;DHT22;1985;48.592;8.850;2022-08-14T09:35:06;26.60;47.40
3942;DHT22;1985;48.592;8.850;2022-08-14T09:47:53;27.10;46.10
3942;DHT22;1985;48.592;8.850;2022-08-14T09:50:29;27.10;45.20
3942;DHT22;1985;48.592;8.850;2022-08-14T09:53:00;27.20;44.80
3942;DHT22;1985;48.592;8.850;2022-08-14T09:55:30;27.30;45.70
3942;DHT22;1985;48.592;8.850;2022-08-14T10:00:48;27.60;44.60
3942;DHT22;1985;48.592;8.850;2022-08-14T10:03:34;27.60;44.80
3942;DHT22;1985;48.592;8.850;2022-08-14T10:08:48;28.00;44.10
3942;DHT22;1985;48.592;8.850;2022-08-14T10:11:21;28.00;42.90
3942;DHT22;1985;48.592;8.850;2022-08-14T10:13:49;28.10;43.10
3942;DHT22;1985;48.592;8.850;2022-08-14T10:16:22;28.30;42.90
3942;DHT22;1985;48.592;8.850;2022-08-14T10:19:07;28.50;43.00
3942;DHT22;1985;48.592;8.850;2022-08-14T10:21:34;28.60;42.90
3942;DHT22;1985;48.592;8.850;2022-08-14T10:24:00;28.80;41.80
3942;DHT22;1985;48.592;8.850;2022-08-14T10:26:26;28.90;41.50
3942;DHT22;1985;48.592;8.850;2022-08-14T10:28:53;29.10;41.50
3942;DHT22;1985;48.592;8.850;2022-08-14T10:31:19;29.30;40.90
3942;DHT22;1985;48.592;8.850;2022-08-14T10:34:07;29.50;41.50
3942;DHT22;1985;48.592;8.850;2022-08-14T10:36:39;29.80;40.20
3942;DHT22;1985;48.592;8.850;2022-08-14T10:39:22;29.90;39.10
3942;DHT22;1985;48.592;8.850;2022-08-14T10:42:03;29.80;39.10
3942;DHT22;1985;48.592;8.850;2022-08-14T10:44:35;30.00;39.90
3942;DHT22;1985;48.592;8.850;2022-08-14T10:47:07;30.30;39.10
3942;DHT22;1985;48.592;8.850;2022-08-14T10:49:37;30.50;39.60
3942;DHT22;1985;48.592;8.850;2022-08-14T10:54:40;30.90;37.30
3942;DHT22;1985;48.592;8.850;2022-08-14T10:57:26;31.00;38.50
3942;DHT22;1985;48.592;8.850;2022-08-14T10:59:59;31.10;35.90
3942;DHT22;1985;48.592;8.850;2022-08-14T11:02:35;31.00;35.50
3942;DHT22;1985;48.592;8.850;2022-08-14T11:07:37;31.20;35.70
3942;DHT22;1985;48.592;8.850;2022-08-14T11:10:13;31.30;34.60
3942;DHT22;1985;48.592;8.850;2022-08-14T11:12:48;31.40;35.50
3942;DHT22;1985;48.592;8.850;2022-08-14T11:15:19;31.60;35.50
3942;DHT22;1985;48.592;8.850;2022-08-14T11:17:46;31.80;32.70
3942;DHT22;1985;48.592;8.850;2022-08-14T11:20:14;31.70;32.90
3942;DHT22;1985;48.592;8.850;2022-08-14T11:22:41;31.80;31.30
3942;DHT22;1985;48.592;8.850;2022-08-14T11:25:10;31.40;32.10
3942;DHT22;1985;48.592;8.850;2022-08-14T11:27:39;31.20;31.90
3942;DHT22;1985;48.592;8.850;2022-08-14T11:30:07;31.20;32.00
3942;DHT22;1985;48.592;8.850;2022-08-14T11:32:33;31.30;32.30
3942;DHT22;1985;48.592;8.850;2022-08-14T11:35:01;31.30;32.70
3942;DHT22;1985;48.592;8.850;2022-08-14T11:37:30;31.60;32.40
3942;DHT22;1985;48.592;8.850;2022-08-14T11:40:02;31.60;31.00
3942;DHT22;1985;48.592;8.850;2022-08-14T11:42:29;31.60;31.50
3942;DHT22;1985;48.592;8.850;2022-08-14T11:44:58;31.70;31.60
3942;DHT22;1985;48.592;8.850;2022-08-14T11:47:24;31.80;30.50
3942;DHT22;1985;48.592;8.850;2022-08-14T11:49:50;32.00;30.80
3942;DHT22;1985;48.592;8.850;2022-08-14T11:52:16;32.40;30.70
3942;DHT22;1985;48.592;8.850;2022-08-14T11:54:44;32.40;31.80
3942;DHT22;1985;48.592;8.850;2022-08-14T11:57:20;32.50;30.80
3942;DHT22;1985;48.592;8.850;2022-08-14T11:59:46;32.50;31.80
3942;DHT22;1985;48.592;8.850;2022-08-14T12:02:14;32.70;31.30
3942;DHT22;1985;48.592;8.850;2022-08-14T12:04:50;32.80;30.70
3942;DHT22;1985;48.592;8.850;2022-08-14T12:07:16;32.90;32.00
3942;DHT22;1985;48.592;8.850;2022-08-14T12:09:43;33.10;31.70
3942;DHT22;1985;48.592;8.850;2022-08-14T12:12:24;33.40;32.20
3942;DHT22;1985;48.592;8.850;2022-08-14T12:17:22;33.60;29.30
3942;DHT22;1985;48.592;8.850;2022-08-14T12:19:54;33.50;30.10
3942;DHT22;1985;48.592;8.850;2022-08-14T12:22:37;33.30;30.30
3942;DHT22;1985;48.592;8.850;2022-08-14T12:25:08;33.30;31.40
3942;DHT22;1985;48.592;8.850;2022-08-14T12:30:05;33.40;30.50
3942;DHT22;1985;48.592;8.850;2022-08-14T12:32:41;33.60;30.80
3942;DHT22;1985;48.592;8.850;2022-08-14T12:35:08;33.70;32.20
3942;DHT22;1985;48.592;8.850;2022-08-14T12:37:35;33.60;30.20
3942;DHT22;1985;48.592;8.850;2022-08-14T12:40:27;33.30;30.70
3942;DHT22;1985;48.592;8.850;2022-08-14T12:43:01;33.50;29.50
3942;DHT22;1985;48.592;8.850;2022-08-14T12:45:32;33.40;30.00
3942;DHT22;1985;48.592;8.850;2022-08-14T12:48:02;33.30;29.30
3942;DHT22;1985;48.592;8.850;2022-08-14T12:50:39;33.10;30.00
3942;DHT22;1985;48.592;8.850;2022-08-14T12:53:05;33.10;31.10
3942;DHT22;1985;48.592;8.850;2022-08-14T12:55:32;33.30;30.00
3942;DHT22;1985;48.592;8.850;2022-08-14T12:58:01;33.30;29.90
3942;DHT22;1985;48.592;8.850;2022-08-14T13:03:00;33.10;30.40
3942;DHT22;1985;48.592;8.850;2022-08-14T13:05:29;33.10;30.40
3942;DHT22;1985;48.592;8.850;2022-08-14T13:07:57;33.00;29.00
3942;DHT22;1985;48.592;8.850;2022-08-14T13:10:23;32.90;29.60
3942;DHT22;1985;48.592;8.850;2022-08-14T13:12:51;32.90;30.00
3942;DHT22;1985;48.592;8.850;2022-08-14T13:15:18;33.10;30.00
3942;DHT22;1985;48.592;8.850;2022-08-14T13:17:46;33.20;29.70
3942;DHT22;1985;48.592;8.850;2022-08-14T13:20:15;33.20;29.20
3942;DHT22;1985;48.592;8.850;2022-08-14T13:22:42;33.30;29.40
3942;DHT22;1985;48.592;8.850;2022-08-14T13:25:14;33.30;29.40
3942;DHT22;1985;48.592;8.850;2022-08-14T13:27:43;33.40;29.00
3942;DHT22;1985;48.592;8.850;2022-08-14T13:30:10;33.40;29.70
3942;DHT22;1985;48.592;8.850;2022-08-14T13:32:36;33.10;29.40
3942;DHT22;1985;48.592;8.850;2022-08-14T13:35:07;32.90;29.40
3942;DHT22;1985;48.592;8.850;2022-08-14T13:37:33;32.90;29.50
3942;DHT22;1985;48.592;8.850;2022-08-14T13:39:59;32.90;29.40
3942;DHT22;1985;48.592;8.850;2022-08-14T13:42:26;32.90;29.90
3942;DHT22;1985;48.592;8.850;2022-08-14T13:44:54;33.00;30.80
3942;DHT22;1985;48.592;8.850;2022-08-14T13:47:24;33.20;29.90
3942;DHT22;1985;48.592;8.850;2022-08-14T13:49:55;33.30;29.60
3942;DHT22;1985;48.592;8.850;2022-08-14T13:52:23;33.20;29.20
3942;DHT22;1985;48.592;8.850;2022-08-14T13:54:52;32.70;29.50
3942;DHT22;1985;48.592;8.850;2022-08-14T13:57:18;32.50;30.00
3942;DHT22;1985;48.592;8.850;2022-08-14T13:59:48;32.60;29.60
3942;DHT22;1985;48.592;8.850;2022-08-14T14:02:16;32.60;29.80
3942;DHT22;1985;48.592;8.850;2022-08-14T14:04:47;32.50;30.00
3942;DHT22;1985;48.592;8.850;2022-08-14T14:07:15;32.60;30.20
3942;DHT22;1985;48.592;8.850;2022-08-14T14:09:44;32.50;29.50
3942;DHT22;1985;48.592;8.850;2022-08-14T14:12:14;32.40;29.60
3942;DHT22;1985;48.592;8.850;2022-08-14T14:14:41;32.20;30.50
3942;DHT22;1985;48.592;8.850;2022-08-14T14:17:09;32.20;31.00
3942;DHT22;1985;48.592;8.850;2022-08-14T14:19:37;32.20;31.50
3942;DHT22;1985;48.592;8.850;2022-08-14T14:22:06;32.20;31.30
3942;DHT22;1985;48.592;8.850;2022-08-14T14:24:32;32.20;31.10
3942;DHT22;1985;48.592;8.850;2022-08-14T14:27:02;32.10;31.50
3942;DHT22;1985;48.592;8.850;2022-08-14T14:29:30;32.10;30.90
3942;DHT22;1985;48.592;8.850;2022-08-14T14:32:00;32.10;31.80
3942;DHT22;1985;48.592;8.850;2022-08-14T14:34:29;32.10;31.40
3942;DHT22;1985;48.592;8.850;2022-08-14T14:36:59;32.00;30.00
3942;DHT22;1985;48.592;8.850;2022-08-14T14:39:30;31.90;31.00
3942;DHT22;1985;48.592;8.850;2022-08-14T14:41:57;31.80;31.60
3942;DHT22;1985;48.592;8.850;2022-08-14T14:44:32;31.80;31.70
3942;DHT22;1985;48.592;8.850;2022-08-14T14:46:58;31.70;31.20
3942;DHT22;1985;48.592;8.850;2022-08-14T14:49:26;31.70;31.50
3942;DHT22;1985;48.592;8.850;2022-08-14T14:51:53;31.70;31.60
3942;DHT22;1985;48.592;8.850;2022-08-14T14:54:21;31.70;30.80
3942;DHT22;1985;48.592;8.850;2022-08-14T14:56:47;31.60;30.70
3942;DHT22;1985;48.592;8.850;2022-08-14T14:59:14;31.60;30.50
3942;DHT22;1985;48.592;8.850;2022-08-14T15:01:43;31.60;31.00
3942;DHT22;1985;48.592;8.850;2022-08-14T15:04:11;31.60;30.80
3942;DHT22;1985;48.592;8.850;2022-08-14T15:06:36;31.60;30.60
3942;DHT22;1985;48.592;8.850;2022-08-14T15:09:02;31.60;31.50
3942;DHT22;1985;48.592;8.850;2022-08-14T15:11:28;31.50;31.40
3942;DHT22;1985;48.592;8.850;2022-08-14T15:13:54;31.50;31.20
3942;DHT22;1985;48.592;8.850;2022-08-14T15:16:20;31.40;31.30
3942;DHT22;1985;48.592;8.850;2022-08-14T15:18:46;31.40;30.80
3942;DHT22;1985;48.592;8.850;2022-08-14T15:21:12;31.50;31.50
3942;DHT22;1985;48.592;8.850;2022-08-14T15:23:39;31.40;32.50
3942;DHT22;1985;48.592;8.850;2022-08-14T15:26:06;31.30;31.30
3942;DHT22;1985;48.592;8.850;2022-08-14T15:28:32;31.30;31.70
3942;DHT22;1985;48.592;8.850;2022-08-14T15:31:02;31.20;30.70
3942;DHT22;1985;48.592;8.850;2022-08-14T15:33:28;31.30;32.10
3942;DHT22;1985;48.592;8.850;2022-08-14T15:36:13;31.20;31.30
3942;DHT22;1985;48.592;8.850;2022-08-14T15:38:39;31.20;31.60
3942;DHT22;1985;48.592;8.850;2022-08-14T15:41:04;31.20;30.20
3942;DHT22;1985;48.592;8.850;2022-08-14T15:43:31;31.20;30.80
3942;DHT22;1985;48.592;8.850;2022-08-14T15:46:06;31.10;30.50
3942;DHT22;1985;48.592;8.850;2022-08-14T15:48:32;31.10;30.30
3942;DHT22;1985;48.592;8.850;2022-08-14T15:50:59;31.00;29.90
3942;DHT22;1985;48.592;8.850;2022-08-14T15:53:25;30.90;31.10
3942;DHT22;1985;48.592;8.850;2022-08-14T15:55:52;30.80;31.90
3942;DHT22;1985;48.592;8.850;2022-08-14T15:58:19;30.80;32.40
3942;DHT22;1985;48.592;8.850;2022-08-14T16:00:45;30.80;32.30
3942;DHT22;1985;48.592;8.850;2022-08-14T16:03:29;30.80;31.60
3942;DHT22;1985;48.592;8.850;2022-08-14T16:05:55;30.80;32.60
3942;DHT22;1985;48.592;8.850;2022-08-14T16:08:21;30.70;31.90
3942;DHT22;1985;48.592;8.850;2022-08-14T16:10:46;30.60;32.40
3942;DHT22;1985;48.592;8.850;2022-08-14T16:13:13;30.50;34.20
3942;DHT22;1985;48.592;8.850;2022-08-14T16:15:39;30.20;35.20
3942;DHT22;1985;48.592;8.850;2022-08-14T16:18:08;30.20;35.90
3942;DHT22;1985;48.592;8.850;2022-08-14T16:20:40;30.10;36.10
3942;DHT22;1985;48.592;8.850;2022-08-14T16:23:09;30.20;35.80
3942;DHT22;1985;48.592;8.850;2022-08-14T16:25:37;30.10;36.40
3942;DHT22;1985;48.592;8.850;2022-08-14T16:28:05;30.10;36.50
3942;DHT22;1985;48.592;8.850;2022-08-14T16:30:31;30.10;36.40
3942;DHT22;1985;48.592;8.850;2022-08-14T16:32:57;30.10;36.00
3942;DHT22;1985;48.592;8.850;2022-08-14T16:35:29;30.00;36.50
3942;DHT22;1985;48.592;8.850;2022-08-14T16:37:59;30.00;37.40
3942;DHT22;1985;48.592;8.850;2022-08-14T16:40:27;30.10;37.20
3942;DHT22;1985;48.592;8.850;2022-08-14T16:42:54;30.10;36.80
3942;DHT22;1985;48.592;8.850;2022-08-14T16:45:24;30.00;36.90
3942;DHT22;1985;48.592;8.850;2022-08-14T16:47:50;29.90;37.10